Rouen Airport

LFOP · Normandy, 法国

此METAR来自2022年8月6日 14:00. 最近的
罗盘
风向 的 风向 的 风向 到 风向 050° Rouen Airport 4/22
风: 13 kt, 4 beaufort

13 kt

2 kt
改变
0 1.000 2.000 3.000 4.000 5.000
CAVOK
METAR LFOP 061200Z AUTO 05013KT 020V080 CAVOK 23/05 Q1027 NOSIG

METAR Rouen Airport - LFOP/URO

Rouen Airport是Rouen/Vallée de Seine,法国中的中型机场。 该机场有2条跑道: 4/22 和 5/23. 该领域的国际民航组织标志是LFOP 它的国际航空运输协会代码是URO.

这份报告是针对2022年8月6日 14:00, 当地时间在Rouen Airport进行的。

机场观察

风向为050°,速度为13 kt。 风向在020°和080°之间变化。

天气为CAVOK。这意味着在5.000 ft或MSA(最低安全高度)以下(以较高者为准)以下没有云。这也意味着没有观测到积雨云或高耸的积云,可见度为10 km 或者更多或更高。此外,不会有雾,降雨或其他重要天气。

温度和风寒是23 °C。 露点为5 °C,相对湿度为31%。 海平面上的气压为1027 hPa (QNH)。

白天

今天,太阳从07:58升起,在19:30降落。 这适用于Rouen Airport,世界夏令时可能有所不同。 当地时间与世界标准时间之间的时差为+2 小时。 夏令时目前正在进行中。

公司介绍

在这个机场,你可以找到飞行俱乐部。 本场上唯一已知的公司是Aéro-Club de Rouen Normandie。

体会

到Vliegles.nl去找飞行课程,跳伞和其他飞行体验。 浏览页面,了解Rouen Airport附近所有可用的活动。 你也可以使用搜索功能来寻找你所在地附近的特定飞行课程、跳伞或其他飞行体验。

跑道

Id 标题 侧风 逆风 侧风 %
4/22 041°-221° 2 kt 13 kt 16 %
5/23 050°-230° 13 kt 0 %

逆风成分最大的方向会被突出显示,并用于横风计算。 这并不一定意味着这个方向在使用。

温度 & 天气

温度 23 °C
露点 5 °C
相对湿度 31%
Kp-index 3 (0-9)

白天

日出
06:33
中午
14:01
日落
21:28

小工具

你想在你的网站上有一个关于Rouen Airport的当前航空天气(METAR)的小部件吗?

</> 显示HTML代码

我们和第三方通过cookies跟踪您在我们网站上的上网行为。如果您继续,我们认为您同意我们的cookie政策。 了解更多